sensor_id;sensor_type;location;lat;lon;timestamp;P1;durP1;ratioP1;P2;durP2;ratioP2
15502;SDS011;7853;52.186;5.948;2023-08-06T00:04:15;7.03;;;4.87;;
15502;SDS011;7853;52.186;5.948;2023-08-06T00:04:15;7.83;;;4.73;;
15502;SDS011;7853;52.186;5.948;2023-08-06T00:04:16;6.53;;;4.68;;
15502;SDS011;7853;52.186;5.948;2023-08-06T00:04:21;6.74;;;4.81;;
15502;SDS011;7853;52.186;5.948;2023-08-06T00:05:28;6.88;;;4.62;;
15502;SDS011;7853;52.186;5.948;2023-08-06T00:06:31;6.58;;;4.46;;
15502;SDS011;7853;52.186;5.948;2023-08-06T00:07:33;6.93;;;4.76;;
15502;SDS011;7853;52.186;5.948;2023-08-06T00:08:34;6.58;;;4.65;;
15502;SDS011;7853;52.186;5.948;2023-08-06T00:09:35;7.68;;;4.82;;
15502;SDS011;7853;52.186;5.948;2023-08-06T00:10:35;6.33;;;4.58;;
15502;SDS011;7853;52.186;5.948;2023-08-06T00:11:35;6.08;;;4.67;;
15502;SDS011;7853;52.186;5.948;2023-08-06T00:12:35;5.39;;;4.46;;
15502;SDS011;7853;52.186;5.948;2023-08-06T00:13:35;6.40;;;4.54;;
15502;SDS011;7853;52.186;5.948;2023-08-06T00:14:35;5.79;;;4.56;;
15502;SDS011;7853;52.186;5.948;2023-08-06T00:15:35;6.36;;;4.78;;
15502;SDS011;7853;52.186;5.948;2023-08-06T00:16:35;6.14;;;4.60;;
15502;SDS011;7853;52.186;5.948;2023-08-06T00:17:35;7.04;;;4.57;;
15502;SDS011;7853;52.186;5.948;2023-08-06T00:18:35;5.75;;;4.69;;
15502;SDS011;7853;52.186;5.948;2023-08-06T00:19:38;6.32;;;4.74;;
15502;SDS011;7853;52.186;5.948;2023-08-06T00:20:34;6.69;;;4.70;;
15502;SDS011;7853;52.186;5.948;2023-08-06T00:21:34;6.55;;;4.83;;
15502;SDS011;7853;52.186;5.948;2023-08-06T00:22:35;7.03;;;4.82;;
15502;SDS011;7853;52.186;5.948;2023-08-06T00:23:35;7.09;;;4.86;;
15502;SDS011;7853;52.186;5.948;2023-08-06T00:24:38;6.94;;;4.98;;
15502;SDS011;7853;52.186;5.948;2023-08-06T00:25:36;6.67;;;4.59;;
15502;SDS011;7853;52.186;5.948;2023-08-06T00:26:35;6.23;;;4.80;;
15502;SDS011;7853;52.186;5.948;2023-08-06T00:27:35;7.63;;;5.01;;
15502;SDS011;7853;52.186;5.948;2023-08-06T00:28:35;7.32;;;4.83;;
15502;SDS011;7853;52.186;5.948;2023-08-06T00:29:35;6.62;;;4.88;;
15502;SDS011;7853;52.186;5.948;2023-08-06T00:30:35;7.60;;;4.96;;
15502;SDS011;7853;52.186;5.948;2023-08-06T00:31:35;6.44;;;4.63;;
15502;SDS011;7853;52.186;5.948;2023-08-06T00:32:35;5.85;;;4.66;;
15502;SDS011;7853;52.186;5.948;2023-08-06T00:33:35;6.59;;;4.72;;
15502;SDS011;7853;52.186;5.948;2023-08-06T00:34:35;5.99;;;4.69;;
15502;SDS011;7853;52.186;5.948;2023-08-06T00:35:35;7.04;;;4.92;;
15502;SDS011;7853;52.186;5.948;2023-08-06T00:36:35;7.02;;;4.77;;
15502;SDS011;7853;52.186;5.948;2023-08-06T00:37:35;6.39;;;4.71;;
15502;SDS011;7853;52.186;5.948;2023-08-06T00:38:35;6.63;;;4.79;;
15502;SDS011;7853;52.186;5.948;2023-08-06T00:39:35;7.00;;;4.62;;
15502;SDS011;7853;52.186;5.948;2023-08-06T00:40:35;7.34;;;4.98;;
15502;SDS011;7853;52.186;5.948;2023-08-06T00:41:35;7.12;;;4.87;;
15502;SDS011;7853;52.186;5.948;2023-08-06T00:42:35;6.26;;;4.84;;
15502;SDS011;7853;52.186;5.948;2023-08-06T00:43:35;7.63;;;5.05;;
15502;SDS011;7853;52.186;5.948;2023-08-06T00:44:35;6.66;;;4.89;;
15502;SDS011;7853;52.186;5.948;2023-08-06T00:45:37;7.46;;;4.71;;
15502;SDS011;7853;52.186;5.948;2023-08-06T00:46:35;6.33;;;4.77;;
15502;SDS011;7853;52.186;5.948;2023-08-06T00:47:35;6.83;;;4.77;;
15502;SDS011;7853;52.186;5.948;2023-08-06T00:48:37;6.18;;;4.89;;
15502;SDS011;7853;52.186;5.948;2023-08-06T00:49:34;6.52;;;4.58;;
15502;SDS011;7853;52.186;5.948;2023-08-06T00:50:34;7.07;;;5.10;;
15502;SDS011;7853;52.186;5.948;2023-08-06T00:51:35;6.87;;;4.91;;
15502;SDS011;7853;52.186;5.948;2023-08-06T00:52:38;7.27;;;5.03;;
15502;SDS011;7853;52.186;5.948;2023-08-06T00:53:35;6.22;;;4.66;;
15502;SDS011;7853;52.186;5.948;2023-08-06T00:54:35;6.47;;;4.94;;
15502;SDS011;7853;52.186;5.948;2023-08-06T00:55:35;6.45;;;4.84;;
15502;SDS011;7853;52.186;5.948;2023-08-06T00:56:35;6.56;;;5.04;;
15502;SDS011;7853;52.186;5.948;2023-08-06T00:57:35;7.09;;;5.20;;
15502;SDS011;7853;52.186;5.948;2023-08-06T00:58:35;6.13;;;4.79;;
15502;SDS011;7853;52.186;5.948;2023-08-06T00:59:35;6.64;;;5.13;;
15502;SDS011;7853;52.186;5.948;2023-08-06T01:00:35;6.66;;;4.91;;
15502;SDS011;7853;52.186;5.948;2023-08-06T01:01:35;6.37;;;4.94;;
15502;SDS011;7853;52.186;5.948;2023-08-06T01:02:35;7.40;;;5.04;;
15502;SDS011;7853;52.186;5.948;2023-08-06T01:03:35;7.77;;;5.41;;
15502;SDS011;7853;52.186;5.948;2023-08-06T01:04:35;7.53;;;4.82;;
15502;SDS011;7853;52.186;5.948;2023-08-06T01:05:35;6.47;;;5.05;;
15502;SDS011;7853;52.186;5.948;2023-08-06T01:06:42;7.12;;;5.23;;
15502;SDS011;7853;52.186;5.948;2023-08-06T01:07:37;7.13;;;5.12;;
15502;SDS011;7853;52.186;5.948;2023-08-06T01:08:44;7.26;;;5.03;;
15502;SDS011;7853;52.186;5.948;2023-08-06T01:09:52;6.31;;;4.83;;
15502;SDS011;7853;52.186;5.948;2023-08-06T01:10:45;6.92;;;4.91;;
15502;SDS011;7853;52.186;5.948;2023-08-06T01:11:43;7.00;;;5.56;;
15502;SDS011;7853;52.186;5.948;2023-08-06T01:12:38;6.30;;;4.75;;
15502;SDS011;7853;52.186;5.948;2023-08-06T01:13:38;6.93;;;5.09;;
15502;SDS011;7853;52.186;5.948;2023-08-06T01:14:37;6.82;;;5.05;;
15502;SDS011;7853;52.186;5.948;2023-08-06T01:15:35;8.09;;;4.97;;
15502;SDS011;7853;52.186;5.948;2023-08-06T01:16:34;7.17;;;5.24;;
15502;SDS011;7853;52.186;5.948;2023-08-06T01:17:36;7.09;;;5.11;;
15502;SDS011;7853;52.186;5.948;2023-08-06T01:18:34;6.60;;;4.96;;
15502;SDS011;7853;52.186;5.948;2023-08-06T01:19:34;7.09;;;5.23;;
15502;SDS011;7853;52.186;5.948;2023-08-06T01:20:34;7.31;;;5.16;;
15502;SDS011;7853;52.186;5.948;2023-08-06T01:21:34;8.34;;;5.28;;
15502;SDS011;7853;52.186;5.948;2023-08-06T01:22:34;6.73;;;5.19;;
15502;SDS011;7853;52.186;5.948;2023-08-06T01:23:34;6.69;;;4.91;;
15502;SDS011;7853;52.186;5.948;2023-08-06T01:24:34;7.67;;;5.20;;
15502;SDS011;7853;52.186;5.948;2023-08-06T01:25:35;7.26;;;5.25;;
15502;SDS011;7853;52.186;5.948;2023-08-06T01:26:36;7.86;;;5.02;;
15502;SDS011;7853;52.186;5.948;2023-08-06T01:27:36;6.93;;;4.93;;
15502;SDS011;7853;52.186;5.948;2023-08-06T01:28:37;7.31;;;5.14;;
15502;SDS011;7853;52.186;5.948;2023-08-06T01:29:35;7.06;;;5.20;;
15502;SDS011;7853;52.186;5.948;2023-08-06T01:30:34;7.02;;;5.05;;
15502;SDS011;7853;52.186;5.948;2023-08-06T01:31:35;6.79;;;4.93;;
15502;SDS011;7853;52.186;5.948;2023-08-06T01:32:34;8.14;;;5.37;;
15502;SDS011;7853;52.186;5.948;2023-08-06T01:33:34;7.30;;;5.17;;
15502;SDS011;7853;52.186;5.948;2023-08-06T01:34:34;7.64;;;5.12;;
15502;SDS011;7853;52.186;5.948;2023-08-06T01:35:34;8.16;;;5.27;;
15502;SDS011;7853;52.186;5.948;2023-08-06T01:36:34;6.27;;;4.99;;
15502;SDS011;7853;52.186;5.948;2023-08-06T01:37:34;8.20;;;5.43;;
15502;SDS011;7853;52.186;5.948;2023-08-06T01:38:34;7.36;;;5.38;;
15502;SDS011;7853;52.186;5.948;2023-08-06T01:39:34;8.41;;;5.74;;
15502;SDS011;7853;52.186;5.948;2023-08-06T01:40:34;6.95;;;5.28;;
15502;SDS011;7853;52.186;5.948;2023-08-06T01:41:34;7.63;;;5.31;;
15502;SDS011;7853;52.186;5.948;2023-08-06T01:42:34;6.87;;;5.43;;
15502;SDS011;7853;52.186;5.948;2023-08-06T01:43:34;7.76;;;5.71;;
15502;SDS011;7853;52.186;5.948;2023-08-06T01:44:34;6.85;;;5.24;;
15502;SDS011;7853;52.186;5.948;2023-08-06T01:45:34;7.59;;;5.67;;
15502;SDS011;7853;52.186;5.948;2023-08-06T01:46:34;8.56;;;5.44;;
15502;SDS011;7853;52.186;5.948;2023-08-06T01:47:34;7.23;;;5.24;;
15502;SDS011;7853;52.186;5.948;2023-08-06T01:48:34;7.23;;;5.46;;
15502;SDS011;7853;52.186;5.948;2023-08-06T01:49:35;8.16;;;5.36;;
15502;SDS011;7853;52.186;5.948;2023-08-06T01:50:34;6.62;;;5.27;;
15502;SDS011;7853;52.186;5.948;2023-08-06T01:51:35;7.88;;;5.53;;
15502;SDS011;7853;52.186;5.948;2023-08-06T01:52:35;6.38;;;5.13;;
15502;SDS011;7853;52.186;5.948;2023-08-06T01:53:34;6.64;;;5.04;;
15502;SDS011;7853;52.186;5.948;2023-08-06T01:54:34;7.02;;;5.43;;
15502;SDS011;7853;52.186;5.948;2023-08-06T01:55:35;7.10;;;5.53;;
15502;SDS011;7853;52.186;5.948;2023-08-06T01:56:35;6.81;;;5.30;;
15502;SDS011;7853;52.186;5.948;2023-08-06T01:57:35;6.71;;;5.18;;
15502;SDS011;7853;52.186;5.948;2023-08-06T01:58:35;7.02;;;5.30;;
15502;SDS011;7853;52.186;5.948;2023-08-06T01:59:35;7.32;;;5.29;;
15502;SDS011;7853;52.186;5.948;2023-08-06T02:00:35;8.56;;;5.90;;
15502;SDS011;7853;52.186;5.948;2023-08-06T02:01:35;7.12;;;5.26;;
15502;SDS011;7853;52.186;5.948;2023-08-06T02:02:35;8.00;;;5.69;;
15502;SDS011;7853;52.186;5.948;2023-08-06T02:03:35;7.93;;;5.66;;
15502;SDS011;7853;52.186;5.948;2023-08-06T02:04:35;7.45;;;5.53;;
15502;SDS011;7853;52.186;5.948;2023-08-06T02:05:35;7.31;;;5.36;;
15502;SDS011;7853;52.186;5.948;2023-08-06T02:06:35;7.28;;;5.30;;
15502;SDS011;7853;52.186;5.948;2023-08-06T02:07:35;6.67;;;5.35;;
15502;SDS011;7853;52.186;5.948;2023-08-06T02:08:35;7.58;;;5.68;;
15502;SDS011;7853;52.186;5.948;2023-08-06T02:09:35;7.56;;;5.33;;
15502;SDS011;7853;52.186;5.948;2023-08-06T02:10:35;7.24;;;5.35;;
15502;SDS011;7853;52.186;5.948;2023-08-06T02:11:35;6.97;;;5.16;;
15502;SDS011;7853;52.186;5.948;2023-08-06T02:12:35;7.84;;;5.28;;
15502;SDS011;7853;52.186;5.948;2023-08-06T02:13:35;7.35;;;5.21;;
15502;SDS011;7853;52.186;5.948;2023-08-06T02:14:35;6.39;;;5.16;;
15502;SDS011;7853;52.186;5.948;2023-08-06T02:15:41;7.53;;;5.33;;
15502;SDS011;7853;52.186;5.948;2023-08-06T02:16:35;7.47;;;5.31;;
15502;SDS011;7853;52.186;5.948;2023-08-06T02:17:35;8.30;;;5.54;;
15502;SDS011;7853;52.186;5.948;2023-08-06T02:18:35;7.13;;;5.51;;
15502;SDS011;7853;52.186;5.948;2023-08-06T02:19:35;7.29;;;5.41;;
15502;SDS011;7853;52.186;5.948;2023-08-06T02:20:35;6.67;;;5.31;;
15502;SDS011;7853;52.186;5.948;2023-08-06T02:21:35;7.99;;;5.32;;
15502;SDS011;7853;52.186;5.948;2023-08-06T02:22:35;6.95;;;4.99;;
15502;SDS011;7853;52.186;5.948;2023-08-06T02:23:35;7.50;;;5.53;;
15502;SDS011;7853;52.186;5.948;2023-08-06T02:24:35;7.63;;;5.42;;
15502;SDS011;7853;52.186;5.948;2023-08-06T02:25:35;8.02;;;5.42;;
15502;SDS011;7853;52.186;5.948;2023-08-06T02:26:35;7.75;;;5.55;;
15502;SDS011;7853;52.186;5.948;2023-08-06T02:27:35;8.27;;;5.50;;
15502;SDS011;7853;52.186;5.948;2023-08-06T02:28:35;7.56;;;5.52;;
15502;SDS011;7853;52.186;5.948;2023-08-06T02:29:35;7.50;;;5.36;;
15502;SDS011;7853;52.186;5.948;2023-08-06T02:30:35;7.70;;;5.38;;
15502;SDS011;7853;52.186;5.948;2023-08-06T02:31:35;7.29;;;5.47;;
15502;SDS011;7853;52.186;5.948;2023-08-06T02:32:35;7.81;;;5.59;;
15502;SDS011;7853;52.186;5.948;2023-08-06T02:33:35;7.27;;;5.44;;
15502;SDS011;7853;52.186;5.948;2023-08-06T02:34:35;9.73;;;5.61;;
15502;SDS011;7853;52.186;5.948;2023-08-06T02:35:35;7.13;;;5.44;;
15502;SDS011;7853;52.186;5.948;2023-08-06T02:36:35;7.49;;;5.31;;
15502;SDS011;7853;52.186;5.948;2023-08-06T02:37:35;7.49;;;5.36;;
15502;SDS011;7853;52.186;5.948;2023-08-06T02:38:35;7.87;;;5.39;;
15502;SDS011;7853;52.186;5.948;2023-08-06T02:39:35;8.70;;;5.44;;
15502;SDS011;7853;52.186;5.948;2023-08-06T02:40:35;7.43;;;5.30;;
15502;SDS011;7853;52.186;5.948;2023-08-06T02:41:35;7.56;;;5.48;;
15502;SDS011;7853;52.186;5.948;2023-08-06T02:42:35;8.16;;;5.57;;
15502;SDS011;7853;52.186;5.948;2023-08-06T02:43:35;7.99;;;5.58;;
15502;SDS011;7853;52.186;5.948;2023-08-06T02:44:36;7.97;;;5.61;;
15502;SDS011;7853;52.186;5.948;2023-08-06T02:45:34;8.23;;;5.42;;
15502;SDS011;7853;52.186;5.948;2023-08-06T02:46:34;8.00;;;5.74;;
15502;SDS011;7853;52.186;5.948;2023-08-06T02:47:34;8.12;;;5.51;;
15502;SDS011;7853;52.186;5.948;2023-08-06T02:48:35;7.78;;;5.50;;
15502;SDS011;7853;52.186;5.948;2023-08-06T02:49:35;7.42;;;5.31;;
15502;SDS011;7853;52.186;5.948;2023-08-06T02:50:38;8.02;;;5.94;;
15502;SDS011;7853;52.186;5.948;2023-08-06T02:51:35;8.31;;;5.88;;
15502;SDS011;7853;52.186;5.948;2023-08-06T02:52:35;8.49;;;5.86;;
15502;SDS011;7853;52.186;5.948;2023-08-06T02:53:35;8.69;;;5.68;;
15502;SDS011;7853;52.186;5.948;2023-08-06T02:54:35;7.77;;;5.62;;
15502;SDS011;7853;52.186;5.948;2023-08-06T02:55:35;7.00;;;5.58;;
15502;SDS011;7853;52.186;5.948;2023-08-06T02:56:35;6.91;;;5.59;;
15502;SDS011;7853;52.186;5.948;2023-08-06T02:57:35;7.35;;;5.65;;
15502;SDS011;7853;52.186;5.948;2023-08-06T02:58:35;8.04;;;5.98;;
15502;SDS011;7853;52.186;5.948;2023-08-06T02:59:35;7.57;;;5.49;;
15502;SDS011;7853;52.186;5.948;2023-08-06T03:00:35;7.64;;;5.48;;
15502;SDS011;7853;52.186;5.948;2023-08-06T03:01:35;7.95;;;5.77;;
15502;SDS011;7853;52.186;5.948;2023-08-06T03:02:35;7.95;;;5.37;;
15502;SDS011;7853;52.186;5.948;2023-08-06T03:03:35;7.48;;;5.60;;
15502;SDS011;7853;52.186;5.948;2023-08-06T03:04:35;7.22;;;5.53;;
15502;SDS011;7853;52.186;5.948;2023-08-06T03:05:35;7.94;;;5.42;;
15502;SDS011;7853;52.186;5.948;2023-08-06T03:06:35;7.05;;;5.06;;
15502;SDS011;7853;52.186;5.948;2023-08-06T03:07:35;7.72;;;5.82;;
15502;SDS011;7853;52.186;5.948;2023-08-06T03:08:35;8.04;;;5.78;;
15502;SDS011;7853;52.186;5.948;2023-08-06T03:09:35;8.11;;;5.47;;
15502;SDS011;7853;52.186;5.948;2023-08-06T03:10:35;7.80;;;5.48;;
15502;SDS011;7853;52.186;5.948;2023-08-06T03:11:35;7.08;;;5.61;;
15502;SDS011;7853;52.186;5.948;2023-08-06T03:12:35;7.32;;;5.38;;
15502;SDS011;7853;52.186;5.948;2023-08-06T03:13:37;7.23;;;5.87;;
15502;SDS011;7853;52.186;5.948;2023-08-06T03:14:33;8.46;;;5.90;;
15502;SDS011;7853;52.186;5.948;2023-08-06T03:15:34;7.44;;;5.73;;
15502;SDS011;7853;52.186;5.948;2023-08-06T03:16:35;6.91;;;5.75;;
15502;SDS011;7853;52.186;5.948;2023-08-06T03:17:35;8.33;;;5.68;;
15502;SDS011;7853;52.186;5.948;2023-08-06T03:18:35;7.44;;;5.63;;
15502;SDS011;7853;52.186;5.948;2023-08-06T03:19:35;7.47;;;6.04;;
15502;SDS011;7853;52.186;5.948;2023-08-06T03:20:35;7.27;;;5.50;;
15502;SDS011;7853;52.186;5.948;2023-08-06T03:21:35;7.59;;;5.55;;
15502;SDS011;7853;52.186;5.948;2023-08-06T03:22:35;7.82;;;5.42;;
15502;SDS011;7853;52.186;5.948;2023-08-06T03:23:35;7.13;;;5.65;;
15502;SDS011;7853;52.186;5.948;2023-08-06T03:24:35;8.32;;;5.76;;
15502;SDS011;7853;52.186;5.948;2023-08-06T03:25:37;7.49;;;5.61;;
15502;SDS011;7853;52.186;5.948;2023-08-06T03:26:33;7.46;;;5.61;;
15502;SDS011;7853;52.186;5.948;2023-08-06T03:27:34;8.12;;;5.78;;
15502;SDS011;7853;52.186;5.948;2023-08-06T03:28:34;7.92;;;5.99;;
15502;SDS011;7853;52.186;5.948;2023-08-06T03:29:35;7.97;;;5.84;;
15502;SDS011;7853;52.186;5.948;2023-08-06T03:30:35;7.18;;;5.53;;
15502;SDS011;7853;52.186;5.948;2023-08-06T03:31:35;7.11;;;5.82;;
15502;SDS011;7853;52.186;5.948;2023-08-06T03:32:35;6.60;;;5.30;;
15502;SDS011;7853;52.186;5.948;2023-08-06T03:33:35;7.39;;;5.75;;
15502;SDS011;7853;52.186;5.948;2023-08-06T03:34:35;6.88;;;5.52;;
15502;SDS011;7853;52.186;5.948;2023-08-06T03:35:35;8.13;;;5.93;;
15502;SDS011;7853;52.186;5.948;2023-08-06T03:36:35;8.25;;;5.78;;
15502;SDS011;7853;52.186;5.948;2023-08-06T03:37:35;7.63;;;5.72;;
15502;SDS011;7853;52.186;5.948;2023-08-06T03:38:35;8.26;;;5.58;;
15502;SDS011;7853;52.186;5.948;2023-08-06T03:39:35;7.61;;;5.69;;
15502;SDS011;7853;52.186;5.948;2023-08-06T03:40:35;6.79;;;5.56;;
15502;SDS011;7853;52.186;5.948;2023-08-06T03:41:35;6.91;;;5.62;;
15502;SDS011;7853;52.186;5.948;2023-08-06T03:42:36;8.43;;;5.61;;
15502;SDS011;7853;52.186;5.948;2023-08-06T03:43:34;7.73;;;5.62;;
15502;SDS011;7853;52.186;5.948;2023-08-06T03:44:34;7.19;;;5.46;;
15502;SDS011;7853;52.186;5.948;2023-08-06T03:45:35;7.77;;;5.78;;
15502;SDS011;7853;52.186;5.948;2023-08-06T03:46:35;7.52;;;5.66;;
15502;SDS011;7853;52.186;5.948;2023-08-06T03:47:35;7.21;;;5.69;;
15502;SDS011;7853;52.186;5.948;2023-08-06T03:48:35;7.48;;;5.43;;
15502;SDS011;7853;52.186;5.948;2023-08-06T03:49:35;7.69;;;5.65;;
15502;SDS011;7853;52.186;5.948;2023-08-06T03:50:35;7.10;;;5.58;;
15502;SDS011;7853;52.186;5.948;2023-08-06T03:51:35;7.58;;;5.58;;
15502;SDS011;7853;52.186;5.948;2023-08-06T03:52:35;7.98;;;5.55;;
15502;SDS011;7853;52.186;5.948;2023-08-06T03:53:35;6.90;;;5.33;;
15502;SDS011;7853;52.186;5.948;2023-08-06T03:54:35;6.98;;;5.30;;
15502;SDS011;7853;52.186;5.948;2023-08-06T03:55:35;6.63;;;5.46;;
15502;SDS011;7853;52.186;5.948;2023-08-06T03:56:35;7.69;;;5.61;;
15502;SDS011;7853;52.186;5.948;2023-08-06T03:57:35;7.79;;;5.74;;
15502;SDS011;7853;52.186;5.948;2023-08-06T03:58:35;7.08;;;5.47;;
15502;SDS011;7853;52.186;5.948;2023-08-06T03:59:35;7.59;;;5.79;;
15502;SDS011;7853;52.186;5.948;2023-08-06T04:00:35;6.91;;;5.53;;
15502;SDS011;7853;52.186;5.948;2023-08-06T04:01:35;7.38;;;5.70;;
15502;SDS011;7853;52.186;5.948;2023-08-06T04:02:35;7.43;;;5.53;;
15502;SDS011;7853;52.186;5.948;2023-08-06T04:03:35;7.29;;;5.44;;
15502;SDS011;7853;52.186;5.948;2023-08-06T04:04:35;7.10;;;5.51;;
15502;SDS011;7853;52.186;5.948;2023-08-06T04:05:35;7.67;;;5.72;;
15502;SDS011;7853;52.186;5.948;2023-08-06T04:06:35;7.81;;;5.48;;
15502;SDS011;7853;52.186;5.948;2023-08-06T04:07:35;8.14;;;5.77;;
15502;SDS011;7853;52.186;5.948;2023-08-06T04:08:35;7.66;;;5.62;;
15502;SDS011;7853;52.186;5.948;2023-08-06T04:09:35;7.45;;;5.55;;
15502;SDS011;7853;52.186;5.948;2023-08-06T04:10:50;7.43;;;5.99;;
15502;SDS011;7853;52.186;5.948;2023-08-06T04:11:42;8.03;;;5.85;;
15502;SDS011;7853;52.186;5.948;2023-08-06T04:12:38;8.80;;;5.65;;
15502;SDS011;7853;52.186;5.948;2023-08-06T04:13:36;7.62;;;5.50;;
15502;SDS011;7853;52.186;5.948;2023-08-06T04:14:35;7.95;;;5.63;;
15502;SDS011;7853;52.186;5.948;2023-08-06T04:15:34;7.81;;;5.69;;
15502;SDS011;7853;52.186;5.948;2023-08-06T04:16:34;8.02;;;5.75;;
15502;SDS011;7853;52.186;5.948;2023-08-06T04:17:34;7.47;;;5.62;;
15502;SDS011;7853;52.186;5.948;2023-08-06T04:18:34;6.83;;;5.67;;
15502;SDS011;7853;52.186;5.948;2023-08-06T04:19:34;8.16;;;5.86;;
15502;SDS011;7853;52.186;5.948;2023-08-06T04:20:34;7.66;;;5.88;;
15502;SDS011;7853;52.186;5.948;2023-08-06T04:21:34;8.26;;;5.94;;
15502;SDS011;7853;52.186;5.948;2023-08-06T04:22:34;8.22;;;5.87;;
15502;SDS011;7853;52.186;5.948;2023-08-06T04:23:34;7.89;;;5.63;;
15502;SDS011;7853;52.186;5.948;2023-08-06T04:24:34;8.53;;;6.22;;
15502;SDS011;7853;52.186;5.948;2023-08-06T04:25:34;8.86;;;5.77;;
15502;SDS011;7853;52.186;5.948;2023-08-06T04:26:34;7.46;;;5.82;;
15502;SDS011;7853;52.186;5.948;2023-08-06T04:27:34;7.97;;;6.02;;
15502;SDS011;7853;52.186;5.948;2023-08-06T04:28:34;8.10;;;5.72;;
15502;SDS011;7853;52.186;5.948;2023-08-06T04:29:34;7.60;;;5.63;;
15502;SDS011;7853;52.186;5.948;2023-08-06T04:30:34;7.44;;;5.81;;
15502;SDS011;7853;52.186;5.948;2023-08-06T04:31:34;9.13;;;6.23;;
15502;SDS011;7853;52.186;5.948;2023-08-06T04:32:34;8.78;;;6.40;;
15502;SDS011;7853;52.186;5.948;2023-08-06T04:33:34;9.38;;;6.51;;
15502;SDS011;7853;52.186;5.948;2023-08-06T04:34:34;9.22;;;6.43;;
15502;SDS011;7853;52.186;5.948;2023-08-06T04:35:34;8.65;;;6.33;;
15502;SDS011;7853;52.186;5.948;2023-08-06T04:36:34;10.00;;;6.31;;
15502;SDS011;7853;52.186;5.948;2023-08-06T04:37:34;10.08;;;6.46;;
15502;SDS011;7853;52.186;5.948;2023-08-06T04:38:34;8.93;;;6.30;;
15502;SDS011;7853;52.186;5.948;2023-08-06T04:39:34;8.49;;;6.20;;
15502;SDS011;7853;52.186;5.948;2023-08-06T04:40:34;9.02;;;6.52;;
15502;SDS011;7853;52.186;5.948;2023-08-06T04:41:34;8.30;;;6.38;;
15502;SDS011;7853;52.186;5.948;2023-08-06T04:42:34;8.44;;;6.36;;
15502;SDS011;7853;52.186;5.948;2023-08-06T04:43:34;9.70;;;6.29;;
15502;SDS011;7853;52.186;5.948;2023-08-06T04:44:34;7.80;;;5.96;;
15502;SDS011;7853;52.186;5.948;2023-08-06T04:45:34;9.22;;;6.51;;
15502;SDS011;7853;52.186;5.948;2023-08-06T04:46:34;8.32;;;6.10;;
15502;SDS011;7853;52.186;5.948;2023-08-06T04:47:34;8.69;;;6.57;;
15502;SDS011;7853;52.186;5.948;2023-08-06T04:48:34;9.28;;;6.53;;
15502;SDS011;7853;52.186;5.948;2023-08-06T04:49:35;9.83;;;6.70;;
15502;SDS011;7853;52.186;5.948;2023-08-06T04:50:34;8.78;;;6.36;;
15502;SDS011;7853;52.186;5.948;2023-08-06T04:51:35;11.43;;;6.85;;
15502;SDS011;7853;52.186;5.948;2023-08-06T04:52:37;10.61;;;6.45;;
15502;SDS011;7853;52.186;5.948;2023-08-06T04:53:33;8.94;;;6.43;;
15502;SDS011;7853;52.186;5.948;2023-08-06T04:54:34;8.72;;;6.55;;
15502;SDS011;7853;52.186;5.948;2023-08-06T04:55:34;8.26;;;6.19;;
15502;SDS011;7853;52.186;5.948;2023-08-06T04:56:34;8.90;;;6.50;;
15502;SDS011;7853;52.186;5.948;2023-08-06T04:57:34;9.90;;;6.65;;
15502;SDS011;7853;52.186;5.948;2023-08-06T04:58:35;8.40;;;6.44;;
15502;SDS011;7853;52.186;5.948;2023-08-06T04:59:35;8.81;;;6.40;;
15502;SDS011;7853;52.186;5.948;2023-08-06T05:00:35;8.63;;;6.53;;
15502;SDS011;7853;52.186;5.948;2023-08-06T05:01:35;9.08;;;6.43;;
15502;SDS011;7853;52.186;5.948;2023-08-06T05:02:35;9.26;;;6.59;;
15502;SDS011;7853;52.186;5.948;2023-08-06T05:03:35;8.30;;;6.62;;
15502;SDS011;7853;52.186;5.948;2023-08-06T05:04:35;8.37;;;6.33;;
15502;SDS011;7853;52.186;5.948;2023-08-06T05:05:35;7.55;;;6.03;;
15502;SDS011;7853;52.186;5.948;2023-08-06T05:06:35;9.68;;;6.23;;
15502;SDS011;7853;52.186;5.948;2023-08-06T05:07:35;8.70;;;6.18;;
15502;SDS011;7853;52.186;5.948;2023-08-06T05:08:35;8.56;;;6.18;;
15502;SDS011;7853;52.186;5.948;2023-08-06T05:09:38;7.02;;;5.73;;
15502;SDS011;7853;52.186;5.948;2023-08-06T05:10:35;8.26;;;5.76;;
15502;SDS011;7853;52.186;5.948;2023-08-06T05:11:35;8.15;;;5.91;;
15502;SDS011;7853;52.186;5.948;2023-08-06T05:12:35;7.78;;;6.03;;
15502;SDS011;7853;52.186;5.948;2023-08-06T05:13:35;8.16;;;6.29;;
15502;SDS011;7853;52.186;5.948;2023-08-06T05:14:35;7.79;;;5.99;;
15502;SDS011;7853;52.186;5.948;2023-08-06T05:15:35;8.11;;;5.81;;
15502;SDS011;7853;52.186;5.948;2023-08-06T05:16:35;8.45;;;6.05;;
15502;SDS011;7853;52.186;5.948;2023-08-06T05:17:35;8.06;;;5.82;;
15502;SDS011;7853;52.186;5.948;2023-08-06T05:18:35;7.75;;;6.12;;
15502;SDS011;7853;52.186;5.948;2023-08-06T05:19:35;8.73;;;6.10;;
15502;SDS011;7853;52.186;5.948;2023-08-06T05:20:35;8.98;;;5.83;;
15502;SDS011;7853;52.186;5.948;2023-08-06T05:21:35;8.94;;;6.17;;
15502;SDS011;7853;52.186;5.948;2023-08-06T05:22:35;9.07;;;6.21;;
15502;SDS011;7853;52.186;5.948;2023-08-06T05:23:35;7.66;;;5.89;;
15502;SDS011;7853;52.186;5.948;2023-08-06T05:24:35;8.41;;;6.11;;
15502;SDS011;7853;52.186;5.948;2023-08-06T05:25:35;7.67;;;5.95;;
15502;SDS011;7853;52.186;5.948;2023-08-06T05:26:35;7.93;;;5.78;;
15502;SDS011;7853;52.186;5.948;2023-08-06T05:27:35;7.83;;;5.96;;
15502;SDS011;7853;52.186;5.948;2023-08-06T05:28:35;7.63;;;5.68;;
15502;SDS011;7853;52.186;5.948;2023-08-06T05:29:35;8.21;;;5.90;;
15502;SDS011;7853;52.186;5.948;2023-08-06T05:30:38;7.84;;;6.05;;
15502;SDS011;7853;52.186;5.948;2023-08-06T05:31:35;7.80;;;5.58;;
15502;SDS011;7853;52.186;5.948;2023-08-06T05:32:35;9.32;;;5.64;;
15502;SDS011;7853;52.186;5.948;2023-08-06T05:33:35;8.04;;;5.75;;
15502;SDS011;7853;52.186;5.948;2023-08-06T05:34:35;8.70;;;5.75;;
15502;SDS011;7853;52.186;5.948;2023-08-06T05:35:35;8.05;;;5.71;;
15502;SDS011;7853;52.186;5.948;2023-08-06T05:36:35;8.91;;;5.99;;
15502;SDS011;7853;52.186;5.948;2023-08-06T05:37:37;7.48;;;5.61;;
15502;SDS011;7853;52.186;5.948;2023-08-06T05:38:37;7.49;;;5.61;;
15502;SDS011;7853;52.186;5.948;2023-08-06T05:39:35;6.90;;;5.37;;
15502;SDS011;7853;52.186;5.948;2023-08-06T05:40:35;6.87;;;5.49;;
15502;SDS011;7853;52.186;5.948;2023-08-06T05:41:35;7.77;;;5.21;;
15502;SDS011;7853;52.186;5.948;2023-08-06T05:42:35;6.99;;;5.39;;
15502;SDS011;7853;52.186;5.948;2023-08-06T05:43:35;7.53;;;5.51;;
15502;SDS011;7853;52.186;5.948;2023-08-06T05:44:35;8.17;;;5.42;;
15502;SDS011;7853;52.186;5.948;2023-08-06T05:45:35;7.53;;;5.56;;
15502;SDS011;7853;52.186;5.948;2023-08-06T05:46:35;7.26;;;5.62;;
15502;SDS011;7853;52.186;5.948;2023-08-06T05:47:35;6.76;;;5.30;;
15502;SDS011;7853;52.186;5.948;2023-08-06T05:48:35;7.61;;;5.64;;
15502;SDS011;7853;52.186;5.948;2023-08-06T05:49:35;8.86;;;5.76;;
15502;SDS011;7853;52.186;5.948;2023-08-06T05:50:35;7.27;;;5.69;;
15502;SDS011;7853;52.186;5.948;2023-08-06T05:51:35;7.18;;;5.64;;
15502;SDS011;7853;52.186;5.948;2023-08-06T05:52:35;7.93;;;5.80;;
15502;SDS011;7853;52.186;5.948;2023-08-06T05:53:35;7.79;;;5.76;;
15502;SDS011;7853;52.186;5.948;2023-08-06T05:54:35;8.00;;;5.59;;
15502;SDS011;7853;52.186;5.948;2023-08-06T05:55:35;7.45;;;5.55;;
15502;SDS011;7853;52.186;5.948;2023-08-06T05:56:35;6.86;;;5.43;;
15502;SDS011;7853;52.186;5.948;2023-08-06T05:57:35;7.49;;;5.69;;
15502;SDS011;7853;52.186;5.948;2023-08-06T05:58:35;7.24;;;5.59;;
15502;SDS011;7853;52.186;5.948;2023-08-06T05:59:35;7.64;;;5.58;;
15502;SDS011;7853;52.186;5.948;2023-08-06T06:00:35;9.06;;;5.93;;
15502;SDS011;7853;52.186;5.948;2023-08-06T06:01:35;7.13;;;5.46;;
15502;SDS011;7853;52.186;5.948;2023-08-06T06:02:35;7.05;;;5.51;;
15502;SDS011;7853;52.186;5.948;2023-08-06T06:03:35;6.84;;;5.58;;
15502;SDS011;7853;52.186;5.948;2023-08-06T06:04:35;7.67;;;5.72;;
15502;SDS011;7853;52.186;5.948;2023-08-06T06:05:37;8.13;;;5.80;;
15502;SDS011;7853;52.186;5.948;2023-08-06T06:06:35;8.62;;;5.92;;
15502;SDS011;7853;52.186;5.948;2023-08-06T06:07:35;8.05;;;5.60;;